Velserdiep — PBLP — position and weather

sailwx.info

Track history (hours):
 
Tides and Currents Weather Stations Pressure Air Temp Water Temp Dewpoint Dewpoint Depression Visibility Wind Speed Wind Dir Waves Ship Positions

Velserdiep

Last reported at 2015-Jun-02 04:11 UTC. Time now 2015-Jun-30 19:45 UTC.
Position N 36°06' W 003°43'.
Warning: this ship's position is 28 days out of date.

Length 120 m; draft 5 m.

Type: Cargo ship. MMSI: 244484000.

Date/timePositionNaut miles runAvg speedWind from/ knotsBaromVisibWave heightAir tempDewpointWater temp
2015-Jun-02 04:11N 36°06' W 003°43'610.0
2015-Jun-02 03:33N 36°06' W 003°35'10 9.9
2015-Jun-02 02:33N 36°06' W 003°23'9 9.5
2015-Jun-02 01:33N 36°06' W 003°11'10 9.3
2015-Jun-02 00:32N 36°06' W 002°60'9 9.2
2015-Jun-01 23:33N 36°06' W 002°48'9 9.4
2015-Jun-01 22:33N 36°06' W 002°37'9 9.4
2015-Jun-01 21:33N 36°06' W 002°25'10 9.5
2015-Jun-01 20:33N 36°06' W 002°13'9 9.2
2015-Jun-01 19:33N 36°06' W 002°02'9 9.2
2015-Jun-01 18:33N 36°06' W 001°51'9 9.4
2015-Jun-01 17:33N 36°06' W 001°39'9 9.4
2015-Jun-01 16:33N 36°06' W 001°27'9 9.2
2015-Jun-01 15:33N 36°06' W 001°16'9 9.2
2015-Jun-01 14:33N 36°06' W 001°04'9 8.9
2015-Jun-01 13:33N 36°06' W 000°53'9 9.1
2015-Jun-01 12:33N 36°06' W 000°42'10 9.7
2015-Jun-01 11:33N 36°06' W 000°30'9 9.4
2015-Jun-01 10:33N 36°04' W 000°19'9 9.3
2015-Jun-01 09:33N 36°02' W 000°08'9 9.1
2015-Jun-01 08:34N 36°00' E 000°03'0 0.1
2015-Jun-01 06:13N 36°00' E 000°04'0 0.0
2015-Jun-01 05:31N 36°00' E 000°04'0 0.0
2015-Jun-01 02:12N 36°00' E 000°04'0 0.0
2015-Jun-01 01:33N 36°00' E 000°04'0 0.0
2015-May-31 23:33N 36°00' E 000°04'0 0.0
2015-May-31 21:33N 36°00' E 000°03'0 0.0
2015-May-31 20:30N 36°00' E 000°03'0 0.0
2015-May-31 19:30N 36°00' E 000°03'0 0.0
2015-May-31 18:33N 36°00' E 000°03'0 0.0
2015-May-31 17:31N 36°00' E 000°03'0 0.0
2015-May-31 16:33N 36°00' E 000°03'0 0.0
2015-May-31 15:33N 36°00' E 000°03'0 0.0
2015-May-31 14:33N 36°00' E 000°03'0 0.0
2015-May-31 13:31N 36°00' E 000°03'0 0.0
2015-May-31 12:30N 36°00' E 000°03'0 0.0
2015-May-31 11:31N 36°00' E 000°03'0 0.0
2015-May-31 10:31N 36°00' E 000°03'0 0.0
2015-May-31 09:18N 36°00' E 000°03'0 0.0
2015-May-31 07:18N 36°00' E 000°04'0 0.1
2015-May-31 06:24N 36°00' E 000°04'0 0.0
2015-May-31 05:18N 36°00' E 000°04'0 0.0
2015-May-31 04:24N 36°00' E 000°04'0 0.0
2015-May-31 03:33N 36°00' E 000°04'0 0.0
2015-May-31 02:31N 36°00' E 000°04'0 0.0
2015-May-30 22:19N 36°00' E 000°03'0 0.0
2015-May-30 21:30N 36°00' E 000°03'0 0.0
2015-May-30 20:30N 36°00' E 000°03'0 0.0
2015-May-30 19:23N 36°00' E 000°03'4 4.8
2015-May-30 18:33N 35°56' E 000°05'0 0.0
2015-May-29 17:14N 35°56' E 000°05'0 0.0
2015-May-29 16:33N 35°56' E 000°05'0 0.0
2015-May-29 14:14N 35°56' E 000°05'0 0.0
2015-May-29 13:32N 35°56' E 000°05'0 0.0
2015-May-29 12:32N 35°56' E 000°05'0 0.0
2015-May-29 11:32N 35°56' E 000°05'0 0.0
2015-May-29 09:32N 35°56' E 000°05'0 0.0
2015-May-29 08:26N 35°56' E 000°05'0 0.0
2015-May-28 21:32N 35°56' E 000°05'0 0.0
2015-May-28 19:26N 35°56' E 000°05'0 0.0
2015-May-28 18:32N 35°56' E 000°05'0 0.0
2015-May-28 16:32N 35°56' E 000°05'0 0.0
2015-May-28 15:32N 35°56' E 000°05'0 0.0
2015-May-28 14:32N 35°56' E 000°05'0 0.0
2015-May-28 13:32N 35°56' E 000°05'0 0.0
2015-May-28 12:32N 35°56' E 000°05'0 0.0
2015-May-28 11:32N 35°56' E 000°05'0 0.0
2015-May-28 10:32N 35°56' E 000°05'0 0.0
2015-May-27 19:31N 35°56' E 000°05'0 0.0
2015-May-27 18:31N 35°56' E 000°05'0 0.0
2015-May-27 17:31N 35°56' E 000°05'0 0.0
2015-May-27 16:31N 35°56' E 000°05'0 0.0
2015-May-27 00:16N 35°56' E 000°04'0 0.0
2015-May-26 23:32N 35°56' E 000°04'0 0.0
2015-May-26 22:32N 35°56' E 000°04'0 0.0
2015-May-26 20:09N 35°56' E 000°04'0 0.0
2015-May-26 19:33N 35°56' E 000°04'  
2015-May-23 04:13N 36°06' W 000°47'  
Track history (hours):
 
Tides and Currents Weather Stations Pressure Air Temp Water Temp Dewpoint Dewpoint Depression Visibility Wind Speed Wind Dir Waves Ship Positions

Velserdiep

Last reported at 2015-Jun-02 04:11 UTC. Time now 2015-Jun-30 19:45 UTC.
Position N 36°06' W 003°43'.
Warning: this ship's position is 28 days out of date.

Length 120 m; draft 5 m.

Type: Cargo ship. MMSI: 244484000.

Date/timePositionNaut miles runAvg speedWind from/ knotsBaromVisibWave heightAir tempDewpointWater temp
2015-Jun-02 04:11N 36°06' W 003°43'610.0
2015-Jun-02 03:33N 36°06' W 003°35'10 9.9
2015-Jun-02 02:33N 36°06' W 003°23'9 9.5
2015-Jun-02 01:33N 36°06' W 003°11'10 9.3
2015-Jun-02 00:32N 36°06' W 002°60'9 9.2
2015-Jun-01 23:33N 36°06' W 002°48'9 9.4
2015-Jun-01 22:33N 36°06' W 002°37'9 9.4
2015-Jun-01 21:33N 36°06' W 002°25'10 9.5
2015-Jun-01 20:33N 36°06' W 002°13'9 9.2
2015-Jun-01 19:33N 36°06' W 002°02'9 9.2
2015-Jun-01 18:33N 36°06' W 001°51'9 9.4
2015-Jun-01 17:33N 36°06' W 001°39'9 9.4
2015-Jun-01 16:33N 36°06' W 001°27'9 9.2
2015-Jun-01 15:33N 36°06' W 001°16'9 9.2
2015-Jun-01 14:33N 36°06' W 001°04'9 8.9
2015-Jun-01 13:33N 36°06' W 000°53'9 9.1
2015-Jun-01 12:33N 36°06' W 000°42'10 9.7
2015-Jun-01 11:33N 36°06' W 000°30'9 9.4
2015-Jun-01 10:33N 36°04' W 000°19'9 9.3
2015-Jun-01 09:33N 36°02' W 000°08'9 9.1
2015-Jun-01 08:34N 36°00' E 000°03'0 0.1
2015-Jun-01 06:13N 36°00' E 000°04'0 0.0
2015-Jun-01 05:31N 36°00' E 000°04'0 0.0
2015-Jun-01 02:12N 36°00' E 000°04'0 0.0
2015-Jun-01 01:33N 36°00' E 000°04'0 0.0
2015-May-31 23:33N 36°00' E 000°04'0 0.0
2015-May-31 21:33N 36°00' E 000°03'0 0.0
2015-May-31 20:30N 36°00' E 000°03'0 0.0
2015-May-31 19:30N 36°00' E 000°03'0 0.0
2015-May-31 18:33N 36°00' E 000°03'0 0.0
2015-May-31 17:31N 36°00' E 000°03'0 0.0
2015-May-31 16:33N 36°00' E 000°03'0 0.0
2015-May-31 15:33N 36°00' E 000°03'0 0.0
2015-May-31 14:33N 36°00' E 000°03'0 0.0
2015-May-31 13:31N 36°00' E 000°03'0 0.0
2015-May-31 12:30N 36°00' E 000°03'0 0.0
2015-May-31 11:31N 36°00' E 000°03'0 0.0
2015-May-31 10:31N 36°00' E 000°03'0 0.0
2015-May-31 09:18N 36°00' E 000°03'0 0.0
2015-May-31 07:18N 36°00' E 000°04'0 0.1
2015-May-31 06:24N 36°00' E 000°04'0 0.0
2015-May-31 05:18N 36°00' E 000°04'0 0.0
2015-May-31 04:24N 36°00' E 000°04'0 0.0
2015-May-31 03:33N 36°00' E 000°04'0 0.0
2015-May-31 02:31N 36°00' E 000°04'0 0.0
2015-May-30 22:19N 36°00' E 000°03'0 0.0
2015-May-30 21:30N 36°00' E 000°03'0 0.0
2015-May-30 20:30N 36°00' E 000°03'0 0.0
2015-May-30 19:23N 36°00' E 000°03'4 4.8
2015-May-30 18:33N 35°56' E 000°05'0 0.0
2015-May-29 17:14N 35°56' E 000°05'0 0.0
2015-May-29 16:33N 35°56' E 000°05'0 0.0
2015-May-29 14:14N 35°56' E 000°05'0 0.0
2015-May-29 13:32N 35°56' E 000°05'0 0.0
2015-May-29 12:32N 35°56' E 000°05'0 0.0
2015-May-29 11:32N 35°56' E 000°05'0 0.0
2015-May-29 09:32N 35°56' E 000°05'0 0.0
2015-May-29 08:26N 35°56' E 000°05'0 0.0
2015-May-28 21:32N 35°56' E 000°05'0 0.0
2015-May-28 19:26N 35°56' E 000°05'0 0.0
2015-May-28 18:32N 35°56' E 000°05'0 0.0
2015-May-28 16:32N 35°56' E 000°05'0 0.0
2015-May-28 15:32N 35°56' E 000°05'0 0.0
2015-May-28 14:32N 35°56' E 000°05'0 0.0
2015-May-28 13:32N 35°56' E 000°05'0 0.0
2015-May-28 12:32N 35°56' E 000°05'0 0.0
2015-May-28 11:32N 35°56' E 000°05'0 0.0
2015-May-28 10:32N 35°56' E 000°05'0 0.0
2015-May-27 19:31N 35°56' E 000°05'0 0.0
2015-May-27 18:31N 35°56' E 000°05'0 0.0
2015-May-27 17:31N 35°56' E 000°05'0 0.0
2015-May-27 16:31N 35°56' E 000°05'0 0.0
2015-May-27 00:16N 35°56' E 000°04'0 0.0
2015-May-26 23:32N 35°56' E 000°04'0 0.0
2015-May-26 22:32N 35°56' E 000°04'0 0.0
2015-May-26 20:09N 35°56' E 000°04'0 0.0
2015-May-26 19:33N 35°56' E 000°04'  
2015-May-23 04:13N 36°06' W 000°47'  

Dump ship's entire track history